sensor_id;sensor_type;location;lat;lon;timestamp;P1;durP1;ratioP1;P2;durP2;ratioP2
61640;SDS011;62201;49.966;8.342;2024-01-30T00:01:11;53.60;;;32.33;;
61640;SDS011;62201;49.966;8.342;2024-01-30T00:03:36;45.90;;;30.63;;
61640;SDS011;62201;49.966;8.342;2024-01-30T00:06:03;43.30;;;29.40;;
61640;SDS011;62201;49.966;8.342;2024-01-30T00:08:28;50.23;;;31.67;;
61640;SDS011;62201;49.966;8.342;2024-01-30T00:10:54;45.47;;;30.50;;
61640;SDS011;62201;49.966;8.342;2024-01-30T00:13:19;41.90;;;27.60;;
61640;SDS011;62201;49.966;8.342;2024-01-30T00:15:45;44.77;;;29.20;;
61640;SDS011;62201;49.966;8.342;2024-01-30T00:18:10;42.90;;;28.93;;
61640;SDS011;62201;49.966;8.342;2024-01-30T00:20:36;46.40;;;30.80;;
61640;SDS011;62201;49.966;8.342;2024-01-30T00:23:01;49.43;;;30.97;;
61640;SDS011;62201;49.966;8.342;2024-01-30T00:25:26;50.37;;;31.40;;
61640;SDS011;62201;49.966;8.342;2024-01-30T00:27:52;45.50;;;30.53;;
61640;SDS011;62201;49.966;8.342;2024-01-30T00:30:17;54.73;;;35.23;;
61640;SDS011;62201;49.966;8.342;2024-01-30T00:32:43;51.53;;;32.13;;
61640;SDS011;62201;49.966;8.342;2024-01-30T00:35:08;48.40;;;31.47;;
61640;SDS011;62201;49.966;8.342;2024-01-30T00:37:35;55.60;;;33.17;;
61640;SDS011;62201;49.966;8.342;2024-01-30T00:40:00;50.07;;;31.43;;
61640;SDS011;62201;49.966;8.342;2024-01-30T00:42:26;53.73;;;33.40;;
61640;SDS011;62201;49.966;8.342;2024-01-30T00:44:51;60.00;;;34.37;;
61640;SDS011;62201;49.966;8.342;2024-01-30T00:47:17;56.63;;;35.83;;
61640;SDS011;62201;49.966;8.342;2024-01-30T00:49:42;57.10;;;33.53;;
61640;SDS011;62201;49.966;8.342;2024-01-30T00:52:08;54.53;;;35.10;;
61640;SDS011;62201;49.966;8.342;2024-01-30T00:54:33;39.00;;;26.07;;
61640;SDS011;62201;49.966;8.342;2024-01-30T00:56:58;51.87;;;31.33;;
61640;SDS011;62201;49.966;8.342;2024-01-30T00:59:24;49.30;;;32.20;;
61640;SDS011;62201;49.966;8.342;2024-01-30T01:01:49;55.73;;;33.37;;
61640;SDS011;62201;49.966;8.342;2024-01-30T01:04:15;59.40;;;34.00;;
61640;SDS011;62201;49.966;8.342;2024-01-30T01:06:41;53.93;;;33.63;;
61640;SDS011;62201;49.966;8.342;2024-01-30T01:09:09;60.60;;;37.33;;
61640;SDS011;62201;49.966;8.342;2024-01-30T01:11:36;51.10;;;32.73;;
61640;SDS011;62201;49.966;8.342;2024-01-30T01:14:02;51.80;;;34.33;;
61640;SDS011;62201;49.966;8.342;2024-01-30T01:16:28;55.13;;;35.20;;
61640;SDS011;62201;49.966;8.342;2024-01-30T01:18:53;49.60;;;30.87;;
61640;SDS011;62201;49.966;8.342;2024-01-30T01:21:19;44.30;;;29.83;;
61640;SDS011;62201;49.966;8.342;2024-01-30T01:23:44;50.77;;;31.67;;
61640;SDS011;62201;49.966;8.342;2024-01-30T01:26:09;45.23;;;28.60;;
61640;SDS011;62201;49.966;8.342;2024-01-30T01:28:35;48.50;;;31.03;;
61640;SDS011;62201;49.966;8.342;2024-01-30T01:31:00;44.83;;;29.20;;
61640;SDS011;62201;49.966;8.342;2024-01-30T01:33:30;48.53;;;31.63;;
61640;SDS011;62201;49.966;8.342;2024-01-30T01:35:57;51.67;;;32.80;;
61640;SDS011;62201;49.966;8.342;2024-01-30T01:38:23;51.87;;;32.63;;
61640;SDS011;62201;49.966;8.342;2024-01-30T01:40:48;48.40;;;30.53;;
61640;SDS011;62201;49.966;8.342;2024-01-30T01:43:14;54.60;;;33.50;;
61640;SDS011;62201;49.966;8.342;2024-01-30T01:45:39;55.03;;;32.97;;
61640;SDS011;62201;49.966;8.342;2024-01-30T01:48:04;60.43;;;37.13;;
61640;SDS011;62201;49.966;8.342;2024-01-30T01:50:30;42.87;;;27.97;;
61640;SDS011;62201;49.966;8.342;2024-01-30T01:52:55;44.80;;;28.70;;
61640;SDS011;62201;49.966;8.342;2024-01-30T01:55:21;63.20;;;37.00;;
61640;SDS011;62201;49.966;8.342;2024-01-30T01:57:49;70.60;;;39.90;;
61640;SDS011;62201;49.966;8.342;2024-01-30T02:00:14;43.10;;;29.00;;
61640;SDS011;62201;49.966;8.342;2024-01-30T02:02:40;57.30;;;34.27;;
61640;SDS011;62201;49.966;8.342;2024-01-30T02:05:07;78.23;;;43.53;;
61640;SDS011;62201;49.966;8.342;2024-01-30T02:07:33;76.80;;;43.13;;
61640;SDS011;62201;49.966;8.342;2024-01-30T02:09:58;54.07;;;33.70;;
61640;SDS011;62201;49.966;8.342;2024-01-30T02:12:24;79.17;;;45.60;;
61640;SDS011;62201;49.966;8.342;2024-01-30T02:14:49;76.67;;;43.47;;
61640;SDS011;62201;49.966;8.342;2024-01-30T02:17:15;90.07;;;48.77;;
61640;SDS011;62201;49.966;8.342;2024-01-30T02:19:41;112.90;;;51.27;;
61640;SDS011;62201;49.966;8.342;2024-01-30T02:22:07;383.53;;;62.33;;
61640;SDS011;62201;49.966;8.342;2024-01-30T02:24:32;331.20;;;56.30;;
61640;SDS011;62201;49.966;8.342;2024-01-30T02:26:58;230.30;;;63.50;;
61640;SDS011;62201;49.966;8.342;2024-01-30T02:29:24;136.80;;;46.00;;
61640;SDS011;62201;49.966;8.342;2024-01-30T02:31:49;229.57;;;57.60;;
61640;SDS011;62201;49.966;8.342;2024-01-30T02:34:15;200.37;;;62.00;;
61640;SDS011;62201;49.966;8.342;2024-01-30T02:36:43;109.60;;;48.20;;
61640;SDS011;62201;49.966;8.342;2024-01-30T02:39:09;242.70;;;76.47;;
61640;SDS011;62201;49.966;8.342;2024-01-30T02:41:34;280.87;;;69.90;;
61640;SDS011;62201;49.966;8.342;2024-01-30T02:44:00;168.47;;;59.37;;
61640;SDS011;62201;49.966;8.342;2024-01-30T02:46:26;325.43;;;71.03;;
61640;SDS011;62201;49.966;8.342;2024-01-30T02:48:51;130.90;;;48.07;;
61640;SDS011;62201;49.966;8.342;2024-01-30T02:51:17;236.77;;;73.63;;
61640;SDS011;62201;49.966;8.342;2024-01-30T02:53:42;73.53;;;39.17;;
61640;SDS011;62201;49.966;8.342;2024-01-30T02:56:08;209.10;;;66.33;;
61640;SDS011;62201;49.966;8.342;2024-01-30T02:58:35;111.23;;;52.27;;
61640;SDS011;62201;49.966;8.342;2024-01-30T03:01:01;169.90;;;69.77;;
61640;SDS011;62201;49.966;8.342;2024-01-30T03:03:27;73.97;;;43.80;;
61640;SDS011;62201;49.966;8.342;2024-01-30T03:05:53;131.23;;;62.60;;
61640;SDS011;62201;49.966;8.342;2024-01-30T03:08:18;154.83;;;68.70;;
61640;SDS011;62201;49.966;8.342;2024-01-30T03:10:43;84.60;;;46.67;;
61640;SDS011;62201;49.966;8.342;2024-01-30T03:13:09;126.37;;;60.10;;
61640;SDS011;62201;49.966;8.342;2024-01-30T03:15:34;53.20;;;35.50;;
61640;SDS011;62201;49.966;8.342;2024-01-30T03:17:59;45.07;;;32.20;;
61640;SDS011;62201;49.966;8.342;2024-01-30T03:20:25;94.37;;;50.90;;
61640;SDS011;62201;49.966;8.342;2024-01-30T03:22:50;104.93;;;54.17;;
61640;SDS011;62201;49.966;8.342;2024-01-30T03:25:15;87.50;;;44.83;;
61640;SDS011;62201;49.966;8.342;2024-01-30T03:27:41;112.17;;;57.30;;
61640;SDS011;62201;49.966;8.342;2024-01-30T03:30:06;53.53;;;35.30;;
61640;SDS011;62201;49.966;8.342;2024-01-30T03:32:32;185.10;;;59.53;;
61640;SDS011;62201;49.966;8.342;2024-01-30T03:34:57;121.40;;;46.53;;
61640;SDS011;62201;49.966;8.342;2024-01-30T03:37:23;532.20;;;115.13;;
61640;SDS011;62201;49.966;8.342;2024-01-30T03:39:48;217.33;;;69.37;;
61640;SDS011;62201;49.966;8.342;2024-01-30T03:42:14;175.00;;;73.03;;
61640;SDS011;62201;49.966;8.342;2024-01-30T03:44:39;113.67;;;56.80;;
61640;SDS011;62201;49.966;8.342;2024-01-30T03:47:05;74.27;;;42.20;;
61640;SDS011;62201;49.966;8.342;2024-01-30T03:49:30;110.47;;;54.03;;
61640;SDS011;62201;49.966;8.342;2024-01-30T03:51:55;98.47;;;49.10;;
61640;SDS011;62201;49.966;8.342;2024-01-30T03:54:21;175.40;;;59.97;;
61640;SDS011;62201;49.966;8.342;2024-01-30T03:56:46;65.20;;;40.07;;
61640;SDS011;62201;49.966;8.342;2024-01-30T03:59:12;73.10;;;37.47;;
61640;SDS011;62201;49.966;8.342;2024-01-30T04:01:37;53.53;;;34.57;;
61640;SDS011;62201;49.966;8.342;2024-01-30T04:04:02;122.73;;;59.07;;
61640;SDS011;62201;49.966;8.342;2024-01-30T04:06:28;286.60;;;70.80;;
61640;SDS011;62201;49.966;8.342;2024-01-30T04:08:53;83.33;;;45.47;;
61640;SDS011;62201;49.966;8.342;2024-01-30T04:11:19;62.17;;;38.53;;
61640;SDS011;62201;49.966;8.342;2024-01-30T04:13:45;48.07;;;32.37;;
61640;SDS011;62201;49.966;8.342;2024-01-30T04:16:18;102.50;;;52.07;;
61640;SDS011;62201;49.966;8.342;2024-01-30T04:18:47;77.47;;;42.97;;
61640;SDS011;62201;49.966;8.342;2024-01-30T04:21:13;101.37;;;50.53;;
61640;SDS011;62201;49.966;8.342;2024-01-30T04:23:39;116.57;;;54.83;;
61640;SDS011;62201;49.966;8.342;2024-01-30T04:26:07;148.90;;;49.23;;
61640;SDS011;62201;49.966;8.342;2024-01-30T04:28:32;404.93;;;81.63;;
61640;SDS011;62201;49.966;8.342;2024-01-30T04:30:58;218.50;;;59.70;;
61640;SDS011;62201;49.966;8.342;2024-01-30T04:33:23;77.63;;;42.43;;
61640;SDS011;62201;49.966;8.342;2024-01-30T04:35:48;147.07;;;59.17;;
61640;SDS011;62201;49.966;8.342;2024-01-30T04:38:14;436.70;;;88.07;;
61640;SDS011;62201;49.966;8.342;2024-01-30T04:40:39;87.97;;;41.30;;
61640;SDS011;62201;49.966;8.342;2024-01-30T04:43:05;175.10;;;63.73;;
61640;SDS011;62201;49.966;8.342;2024-01-30T04:45:30;590.77;;;101.87;;
61640;SDS011;62201;49.966;8.342;2024-01-30T04:47:56;435.13;;;91.77;;
61640;SDS011;62201;49.966;8.342;2024-01-30T04:50:21;131.57;;;56.57;;
61640;SDS011;62201;49.966;8.342;2024-01-30T04:52:46;175.63;;;63.43;;
61640;SDS011;62201;49.966;8.342;2024-01-30T04:55:12;113.83;;;53.10;;
61640;SDS011;62201;49.966;8.342;2024-01-30T04:57:37;149.97;;;49.07;;
61640;SDS011;62201;49.966;8.342;2024-01-30T05:00:03;88.43;;;42.20;;
61640;SDS011;62201;49.966;8.342;2024-01-30T05:02:28;447.50;;;82.60;;
61640;SDS011;62201;49.966;8.342;2024-01-30T05:04:54;274.03;;;62.77;;
61640;SDS011;62201;49.966;8.342;2024-01-30T05:07:19;658.43;;;79.73;;
61640;SDS011;62201;49.966;8.342;2024-01-30T05:09:45;337.00;;;66.10;;
61640;SDS011;62201;49.966;8.342;2024-01-30T05:12:10;606.73;;;80.97;;
61640;SDS011;62201;49.966;8.342;2024-01-30T05:14:35;627.30;;;103.30;;
61640;SDS011;62201;49.966;8.342;2024-01-30T05:17:01;570.50;;;82.37;;
61640;SDS011;62201;49.966;8.342;2024-01-30T05:19:28;934.77;;;99.27;;
61640;SDS011;62201;49.966;8.342;2024-01-30T05:21:53;685.47;;;86.00;;
61640;SDS011;62201;49.966;8.342;2024-01-30T05:24:19;937.70;;;128.80;;
61640;SDS011;62201;49.966;8.342;2024-01-30T05:26:44;878.13;;;125.00;;
61640;SDS011;62201;49.966;8.342;2024-01-30T05:29:09;633.90;;;99.87;;
61640;SDS011;62201;49.966;8.342;2024-01-30T05:31:35;799.87;;;111.00;;
61640;SDS011;62201;49.966;8.342;2024-01-30T05:34:00;656.33;;;100.27;;
61640;SDS011;62201;49.966;8.342;2024-01-30T05:36:26;712.20;;;104.70;;
61640;SDS011;62201;49.966;8.342;2024-01-30T05:38:51;558.53;;;91.20;;
61640;SDS011;62201;49.966;8.342;2024-01-30T05:41:17;1544.67;;;163.50;;
61640;SDS011;62201;49.966;8.342;2024-01-30T05:43:42;1560.17;;;146.50;;
61640;SDS011;62201;49.966;8.342;2024-01-30T05:46:07;1381.93;;;137.03;;
61640;SDS011;62201;49.966;8.342;2024-01-30T05:48:33;905.07;;;106.80;;
61640;SDS011;62201;49.966;8.342;2024-01-30T05:51:00;619.27;;;84.00;;
61640;SDS011;62201;49.966;8.342;2024-01-30T05:53:25;1152.23;;;147.80;;
61640;SDS011;62201;49.966;8.342;2024-01-30T05:55:51;429.53;;;66.13;;
61640;SDS011;62201;49.966;8.342;2024-01-30T05:58:16;564.83;;;70.87;;
61640;SDS011;62201;49.966;8.342;2024-01-30T06:00:42;808.33;;;109.23;;
61640;SDS011;62201;49.966;8.342;2024-01-30T06:03:07;342.13;;;59.53;;
61640;SDS011;62201;49.966;8.342;2024-01-30T06:05:32;775.30;;;121.30;;
61640;SDS011;62201;49.966;8.342;2024-01-30T06:07:58;1242.03;;;177.07;;
61640;SDS011;62201;49.966;8.342;2024-01-30T06:10:23;1255.43;;;166.20;;
61640;SDS011;62201;49.966;8.342;2024-01-30T06:12:48;757.80;;;119.17;;
61640;SDS011;62201;49.966;8.342;2024-01-30T06:15:14;823.17;;;110.63;;
61640;SDS011;62201;49.966;8.342;2024-01-30T06:17:39;687.47;;;120.47;;
61640;SDS011;62201;49.966;8.342;2024-01-30T06:20:05;432.00;;;71.80;;
61640;SDS011;62201;49.966;8.342;2024-01-30T06:22:31;392.80;;;68.00;;
61640;SDS011;62201;49.966;8.342;2024-01-30T06:24:56;424.37;;;86.27;;
61640;SDS011;62201;49.966;8.342;2024-01-30T06:27:22;879.67;;;146.30;;
61640;SDS011;62201;49.966;8.342;2024-01-30T06:29:47;487.60;;;83.63;;
61640;SDS011;62201;49.966;8.342;2024-01-30T06:32:12;228.47;;;51.40;;
61640;SDS011;62201;49.966;8.342;2024-01-30T06:34:38;403.43;;;71.17;;
61640;SDS011;62201;49.966;8.342;2024-01-30T06:37:04;730.43;;;90.87;;
61640;SDS011;62201;49.966;8.342;2024-01-30T06:39:30;321.53;;;60.57;;
61640;SDS011;62201;49.966;8.342;2024-01-30T06:41:55;453.57;;;77.37;;
61640;SDS011;62201;49.966;8.342;2024-01-30T06:44:21;1006.33;;;157.10;;
61640;SDS011;62201;49.966;8.342;2024-01-30T06:46:46;851.67;;;112.03;;
61640;SDS011;62201;49.966;8.342;2024-01-30T06:49:12;742.83;;;98.47;;
61640;SDS011;62201;49.966;8.342;2024-01-30T06:51:37;616.53;;;95.07;;
61640;SDS011;62201;49.966;8.342;2024-01-30T06:54:03;1130.73;;;155.27;;
61640;SDS011;62201;49.966;8.342;2024-01-30T06:56:28;802.27;;;111.13;;
61640;SDS011;62201;49.966;8.342;2024-01-30T06:58:54;272.87;;;50.43;;
61640;SDS011;62201;49.966;8.342;2024-01-30T07:01:19;499.03;;;93.90;;
61640;SDS011;62201;49.966;8.342;2024-01-30T07:03:45;416.40;;;74.77;;
61640;SDS011;62201;49.966;8.342;2024-01-30T07:06:10;427.07;;;78.60;;
61640;SDS011;62201;49.966;8.342;2024-01-30T07:08:36;879.90;;;155.00;;
61640;SDS011;62201;49.966;8.342;2024-01-30T07:11:05;583.87;;;95.00;;
61640;SDS011;62201;49.966;8.342;2024-01-30T07:13:31;261.23;;;62.00;;
61640;SDS011;62201;49.966;8.342;2024-01-30T07:15:56;668.37;;;121.17;;
61640;SDS011;62201;49.966;8.342;2024-01-30T07:18:22;411.10;;;78.83;;
61640;SDS011;62201;49.966;8.342;2024-01-30T07:20:47;651.63;;;100.10;;
61640;SDS011;62201;49.966;8.342;2024-01-30T07:23:14;373.60;;;66.60;;
61640;SDS011;62201;49.966;8.342;2024-01-30T07:25:41;643.47;;;88.40;;
61640;SDS011;62201;49.966;8.342;2024-01-30T07:28:07;521.63;;;104.50;;
61640;SDS011;62201;49.966;8.342;2024-01-30T07:30:34;603.63;;;100.10;;
61640;SDS011;62201;49.966;8.342;2024-01-30T07:33:00;593.87;;;104.07;;
61640;SDS011;62201;49.966;8.342;2024-01-30T07:35:25;585.03;;;87.47;;
61640;SDS011;62201;49.966;8.342;2024-01-30T07:37:51;517.27;;;99.67;;
61640;SDS011;62201;49.966;8.342;2024-01-30T07:40:16;540.77;;;98.67;;
61640;SDS011;62201;49.966;8.342;2024-01-30T07:42:42;872.30;;;144.00;;
61640;SDS011;62201;49.966;8.342;2024-01-30T07:45:08;774.80;;;140.47;;
61640;SDS011;62201;49.966;8.342;2024-01-30T07:47:33;613.23;;;118.77;;
61640;SDS011;62201;49.966;8.342;2024-01-30T07:49:59;1513.50;;;200.60;;
61640;SDS011;62201;49.966;8.342;2024-01-30T07:52:24;674.20;;;80.57;;
61640;SDS011;62201;49.966;8.342;2024-01-30T07:54:50;846.77;;;154.57;;
61640;SDS011;62201;49.966;8.342;2024-01-30T07:57:16;292.07;;;54.87;;
61640;SDS011;62201;49.966;8.342;2024-01-30T07:59:42;960.67;;;164.20;;
61640;SDS011;62201;49.966;8.342;2024-01-30T08:02:11;491.27;;;61.43;;
61640;SDS011;62201;49.966;8.342;2024-01-30T08:04:37;306.50;;;68.87;;
61640;SDS011;62201;49.966;8.342;2024-01-30T08:07:03;251.53;;;63.03;;
61640;SDS011;62201;49.966;8.342;2024-01-30T08:09:28;344.50;;;69.60;;
61640;SDS011;62201;49.966;8.342;2024-01-30T08:11:54;911.53;;;160.37;;
61640;SDS011;62201;49.966;8.342;2024-01-30T08:14:19;217.83;;;49.03;;
61640;SDS011;62201;49.966;8.342;2024-01-30T08:16:44;158.53;;;51.20;;
61640;SDS011;62201;49.966;8.342;2024-01-30T08:19:10;289.50;;;44.90;;
61640;SDS011;62201;49.966;8.342;2024-01-30T08:21:35;316.60;;;47.63;;
61640;SDS011;62201;49.966;8.342;2024-01-30T08:24:04;117.97;;;38.03;;
61640;SDS011;62201;49.966;8.342;2024-01-30T08:26:31;657.47;;;120.10;;
61640;SDS011;62201;49.966;8.342;2024-01-30T08:28:58;175.77;;;53.43;;
61640;SDS011;62201;49.966;8.342;2024-01-30T08:31:23;255.43;;;58.87;;
61640;SDS011;62201;49.966;8.342;2024-01-30T08:33:49;307.40;;;63.50;;
61640;SDS011;62201;49.966;8.342;2024-01-30T08:36:15;99.73;;;39.07;;
61640;SDS011;62201;49.966;8.342;2024-01-30T08:38:41;407.63;;;88.07;;
61640;SDS011;62201;49.966;8.342;2024-01-30T08:41:07;47.67;;;30.30;;
61640;SDS011;62201;49.966;8.342;2024-01-30T08:43:33;83.03;;;46.47;;
61640;SDS011;62201;49.966;8.342;2024-01-30T08:45:59;60.30;;;34.70;;
61640;SDS011;62201;49.966;8.342;2024-01-30T08:48:24;52.37;;;34.97;;
61640;SDS011;62201;49.966;8.342;2024-01-30T08:50:50;80.33;;;48.30;;
61640;SDS011;62201;49.966;8.342;2024-01-30T08:53:15;54.10;;;35.70;;
61640;SDS011;62201;49.966;8.342;2024-01-30T08:55:41;49.03;;;33.57;;
61640;SDS011;62201;49.966;8.342;2024-01-30T08:58:06;72.37;;;40.07;;
61640;SDS011;62201;49.966;8.342;2024-01-30T09:00:32;66.20;;;35.03;;
61640;SDS011;62201;49.966;8.342;2024-01-30T09:02:57;88.67;;;30.07;;
61640;SDS011;62201;49.966;8.342;2024-01-30T09:05:22;178.17;;;61.07;;
61640;SDS011;62201;49.966;8.342;2024-01-30T09:07:48;137.80;;;60.17;;
61640;SDS011;62201;49.966;8.342;2024-01-30T09:10:13;250.30;;;77.40;;
61640;SDS011;62201;49.966;8.342;2024-01-30T09:12:38;55.90;;;33.83;;
61640;SDS011;62201;49.966;8.342;2024-01-30T09:15:04;75.13;;;41.27;;
61640;SDS011;62201;49.966;8.342;2024-01-30T09:17:29;101.13;;;48.50;;
61640;SDS011;62201;49.966;8.342;2024-01-30T09:19:55;72.00;;;42.03;;
61640;SDS011;62201;49.966;8.342;2024-01-30T09:22:21;45.23;;;28.83;;
61640;SDS011;62201;49.966;8.342;2024-01-30T09:24:46;59.33;;;36.83;;
61640;SDS011;62201;49.966;8.342;2024-01-30T09:27:11;48.13;;;30.30;;
61640;SDS011;62201;49.966;8.342;2024-01-30T09:29:37;40.57;;;27.03;;
61640;SDS011;62201;49.966;8.342;2024-01-30T09:32:02;65.47;;;39.87;;
61640;SDS011;62201;49.966;8.342;2024-01-30T09:34:29;39.13;;;27.43;;
61640;SDS011;62201;49.966;8.342;2024-01-30T09:36:54;47.13;;;30.43;;
61640;SDS011;62201;49.966;8.342;2024-01-30T09:39:20;46.97;;;32.10;;
61640;SDS011;62201;49.966;8.342;2024-01-30T09:41:48;35.93;;;25.43;;
61640;SDS011;62201;49.966;8.342;2024-01-30T09:44:16;37.17;;;26.77;;
61640;SDS011;62201;49.966;8.342;2024-01-30T09:46:42;42.53;;;27.87;;
61640;SDS011;62201;49.966;8.342;2024-01-30T09:49:08;48.23;;;32.67;;
61640;SDS011;62201;49.966;8.342;2024-01-30T09:51:34;38.03;;;27.03;;
61640;SDS011;62201;49.966;8.342;2024-01-30T09:54:01;32.97;;;23.53;;
61640;SDS011;62201;49.966;8.342;2024-01-30T09:56:28;46.80;;;32.40;;
61640;SDS011;62201;49.966;8.342;2024-01-30T09:58:54;34.50;;;25.17;;
61640;SDS011;62201;49.966;8.342;2024-01-30T10:01:19;41.33;;;28.20;;
61640;SDS011;62201;49.966;8.342;2024-01-30T10:03:45;31.93;;;22.83;;
61640;SDS011;62201;49.966;8.342;2024-01-30T10:06:11;46.43;;;29.47;;
61640;SDS011;62201;49.966;8.342;2024-01-30T10:08:37;37.17;;;26.70;;
61640;SDS011;62201;49.966;8.342;2024-01-30T10:11:02;41.53;;;26.03;;
61640;SDS011;62201;49.966;8.342;2024-01-30T10:13:28;27.17;;;19.57;;
61640;SDS011;62201;49.966;8.342;2024-01-30T10:15:54;28.87;;;19.63;;
61640;SDS011;62201;49.966;8.342;2024-01-30T10:18:20;26.93;;;19.30;;
61640;SDS011;62201;49.966;8.342;2024-01-30T10:20:47;26.20;;;19.73;;
61640;SDS011;62201;49.966;8.342;2024-01-30T10:23:12;31.10;;;22.83;;
61640;SDS011;62201;49.966;8.342;2024-01-30T10:25:38;31.33;;;20.17;;
61640;SDS011;62201;49.966;8.342;2024-01-30T10:28:03;36.70;;;23.00;;
61640;SDS011;62201;49.966;8.342;2024-01-30T10:30:29;30.23;;;19.60;;
61640;SDS011;62201;49.966;8.342;2024-01-30T10:32:54;34.53;;;23.63;;
61640;SDS011;62201;49.966;8.342;2024-01-30T10:35:20;32.93;;;22.97;;
61640;SDS011;62201;49.966;8.342;2024-01-30T10:37:48;25.07;;;18.17;;
61640;SDS011;62201;49.966;8.342;2024-01-30T10:40:14;23.97;;;16.00;;
61640;SDS011;62201;49.966;8.342;2024-01-30T10:42:43;34.10;;;17.57;;
61640;SDS011;62201;49.966;8.342;2024-01-30T10:45:10;24.17;;;18.93;;
61640;SDS011;62201;49.966;8.342;2024-01-30T10:48:00;23.40;;;16.43;;
61640;SDS011;62201;49.966;8.342;2024-01-30T10:50:25;27.93;;;16.37;;
61640;SDS011;62201;49.966;8.342;2024-01-30T10:52:51;22.50;;;16.10;;
61640;SDS011;62201;49.966;8.342;2024-01-30T10:55:17;23.47;;;15.77;;
61640;SDS011;62201;49.966;8.342;2024-01-30T10:57:43;23.37;;;17.97;;
61640;SDS011;62201;49.966;8.342;2024-01-30T11:00:09;23.70;;;16.60;;
61640;SDS011;62201;49.966;8.342;2024-01-30T11:02:40;26.30;;;17.10;;
61640;SDS011;62201;49.966;8.342;2024-01-30T11:05:08;26.00;;;18.93;;
61640;SDS011;62201;49.966;8.342;2024-01-30T11:07:34;26.87;;;16.93;;
61640;SDS011;62201;49.966;8.342;2024-01-30T11:10:01;23.37;;;16.17;;
61640;SDS011;62201;49.966;8.342;2024-01-30T11:12:29;22.37;;;17.17;;
61640;SDS011;62201;49.966;8.342;2024-01-30T11:15:01;24.20;;;15.40;;
61640;SDS011;62201;49.966;8.342;2024-01-30T11:22:47;20.05;;;14.23;;
61640;SDS011;62201;49.966;8.342;2024-01-30T11:25:13;17.87;;;13.90;;
61640;SDS011;62201;49.966;8.342;2024-01-30T11:27:41;20.03;;;16.03;;
61640;SDS011;62201;49.966;8.342;2024-01-30T11:30:07;19.23;;;14.57;;
61640;SDS011;62201;49.966;8.342;2024-01-30T11:32:33;20.90;;;15.20;;
61640;SDS011;62201;49.966;8.342;2024-01-30T11:34:58;17.97;;;14.33;;
61640;SDS011;62201;49.966;8.342;2024-01-30T11:37:25;20.10;;;14.87;;
61640;SDS011;62201;49.966;8.342;2024-01-30T11:39:52;21.00;;;14.10;;
61640;SDS011;62201;49.966;8.342;2024-01-30T11:42:19;21.00;;;14.60;;
61640;SDS011;62201;49.966;8.342;2024-01-30T11:44:47;20.33;;;14.33;;
61640;SDS011;62201;49.966;8.342;2024-01-30T11:47:14;19.30;;;13.30;;
61640;SDS011;62201;49.966;8.342;2024-01-30T11:49:39;21.27;;;15.87;;
61640;SDS011;62201;49.966;8.342;2024-01-30T11:52:05;23.23;;;14.67;;
61640;SDS011;62201;49.966;8.342;2024-01-30T11:54:30;17.77;;;14.50;;
61640;SDS011;62201;49.966;8.342;2024-01-30T11:56:56;22.13;;;14.33;;
61640;SDS011;62201;49.966;8.342;2024-01-30T11:59:21;17.80;;;13.07;;
61640;SDS011;62201;49.966;8.342;2024-01-30T12:01:47;15.90;;;12.50;;
61640;SDS011;62201;49.966;8.342;2024-01-30T12:04:13;18.37;;;13.20;;
61640;SDS011;62201;49.966;8.342;2024-01-30T12:06:38;19.83;;;14.17;;
61640;SDS011;62201;49.966;8.342;2024-01-30T12:09:05;18.20;;;13.30;;
61640;SDS011;62201;49.966;8.342;2024-01-30T12:11:33;17.67;;;13.33;;
61640;SDS011;62201;49.966;8.342;2024-01-30T12:14:08;17.23;;;13.83;;
61640;SDS011;62201;49.966;8.342;2024-01-30T12:16:34;22.97;;;14.90;;
61640;SDS011;62201;49.966;8.342;2024-01-30T12:19:00;18.98;;;14.20;;
61640;SDS011;62201;49.966;8.342;2024-01-30T12:21:29;16.00;;;13.00;;
61640;SDS011;62201;49.966;8.342;2024-01-30T12:23:55;16.90;;;13.40;;
61640;SDS011;62201;49.966;8.342;2024-01-30T12:26:22;16.10;;;12.17;;
61640;SDS011;62201;49.966;8.342;2024-01-30T12:28:48;18.70;;;13.38;;
61640;SDS011;62201;49.966;8.342;2024-01-30T12:31:15;19.50;;;13.47;;
61640;SDS011;62201;49.966;8.342;2024-01-30T12:33:40;17.20;;;11.52;;
61640;SDS011;62201;49.966;8.342;2024-01-30T12:36:06;17.60;;;13.48;;
61640;SDS011;62201;49.966;8.342;2024-01-30T12:38:35;17.88;;;12.50;;
61640;SDS011;62201;49.966;8.342;2024-01-30T12:41:00;18.77;;;12.30;;
61640;SDS011;62201;49.966;8.342;2024-01-30T12:43:25;19.02;;;12.35;;
61640;SDS011;62201;49.966;8.342;2024-01-30T12:45:54;15.73;;;12.43;;
61640;SDS011;62201;49.966;8.342;2024-01-30T12:48:20;17.33;;;12.25;;
61640;SDS011;62201;49.966;8.342;2024-01-30T12:50:45;18.30;;;12.77;;
61640;SDS011;62201;49.966;8.342;2024-01-30T12:53:11;19.65;;;13.38;;
61640;SDS011;62201;49.966;8.342;2024-01-30T12:55:37;17.88;;;12.25;;
61640;SDS011;62201;49.966;8.342;2024-01-30T12:58:03;21.52;;;12.40;;
61640;SDS011;62201;49.966;8.342;2024-01-30T13:00:29;23.92;;;11.93;;
61640;SDS011;62201;49.966;8.342;2024-01-30T13:02:54;18.85;;;12.15;;
61640;SDS011;62201;49.966;8.342;2024-01-30T13:05:19;17.55;;;11.25;;
61640;SDS011;62201;49.966;8.342;2024-01-30T13:07:45;19.27;;;13.20;;
61640;SDS011;62201;49.966;8.342;2024-01-30T13:10:11;15.43;;;12.40;;
61640;SDS011;62201;49.966;8.342;2024-01-30T13:12:36;16.95;;;13.70;;
61640;SDS011;62201;49.966;8.342;2024-01-30T13:15:03;18.13;;;12.95;;
61640;SDS011;62201;49.966;8.342;2024-01-30T13:17:29;18.05;;;13.77;;
61640;SDS011;62201;49.966;8.342;2024-01-30T13:19:55;16.85;;;13.32;;
61640;SDS011;62201;49.966;8.342;2024-01-30T13:22:20;18.70;;;13.07;;
61640;SDS011;62201;49.966;8.342;2024-01-30T13:24:49;17.77;;;13.95;;
61640;SDS011;62201;49.966;8.342;2024-01-30T13:27:15;17.17;;;13.80;;
61640;SDS011;62201;49.966;8.342;2024-01-30T13:29:40;21.10;;;13.90;;
61640;SDS011;62201;49.966;8.342;2024-01-30T13:32:06;16.02;;;13.10;;
61640;SDS011;62201;49.966;8.342;2024-01-30T13:34:32;19.50;;;13.75;;
61640;SDS011;62201;49.966;8.342;2024-01-30T13:36:57;18.20;;;13.17;;
61640;SDS011;62201;49.966;8.342;2024-01-30T13:39:23;23.60;;;13.70;;
61640;SDS011;62201;49.966;8.342;2024-01-30T13:41:49;19.90;;;13.33;;
61640;SDS011;62201;49.966;8.342;2024-01-30T13:44:15;19.08;;;14.05;;
61640;SDS011;62201;49.966;8.342;2024-01-30T13:46:41;18.80;;;14.03;;
61640;SDS011;62201;49.966;8.342;2024-01-30T13:49:07;17.10;;;13.18;;
61640;SDS011;62201;49.966;8.342;2024-01-30T13:51:32;17.23;;;13.25;;
61640;SDS011;62201;49.966;8.342;2024-01-30T13:53:58;18.33;;;13.27;;
61640;SDS011;62201;49.966;8.342;2024-01-30T13:56:23;16.67;;;12.10;;
61640;SDS011;62201;49.966;8.342;2024-01-30T13:58:48;17.77;;;13.65;;
61640;SDS011;62201;49.966;8.342;2024-01-30T14:01:15;17.33;;;12.85;;
61640;SDS011;62201;49.966;8.342;2024-01-30T14:03:41;14.68;;;11.70;;
61640;SDS011;62201;49.966;8.342;2024-01-30T14:06:06;18.38;;;12.95;;
61640;SDS011;62201;49.966;8.342;2024-01-30T14:08:32;17.20;;;13.88;;
61640;SDS011;62201;49.966;8.342;2024-01-30T14:10:57;19.13;;;13.00;;